sensor_id;sensor_type;location;lat;lon;timestamp;P1;durP1;ratioP1;P2;durP2;ratioP2
71626;SDS011;59475;52.464;13.590;2023-07-13T00:02:14;4.50;;;3.30;;
71626;SDS011;59475;52.464;13.590;2023-07-13T00:04:40;4.03;;;3.20;;
71626;SDS011;59475;52.464;13.590;2023-07-13T00:07:05;3.53;;;3.00;;
71626;SDS011;59475;52.464;13.590;2023-07-13T00:09:30;6.67;;;3.43;;
71626;SDS011;59475;52.464;13.590;2023-07-13T00:11:56;4.50;;;2.92;;
71626;SDS011;59475;52.464;13.590;2023-07-13T00:14:23;4.60;;;3.10;;
71626;SDS011;59475;52.464;13.590;2023-07-13T00:16:50;4.63;;;3.08;;
71626;SDS011;59475;52.464;13.590;2023-07-13T00:19:15;5.57;;;3.53;;
71626;SDS011;59475;52.464;13.590;2023-07-13T00:21:41;6.73;;;3.40;;
71626;SDS011;59475;52.464;13.590;2023-07-13T00:24:08;5.88;;;3.10;;
71626;SDS011;59475;52.464;13.590;2023-07-13T00:26:38;5.78;;;3.17;;
71626;SDS011;59475;52.464;13.590;2023-07-13T00:29:03;4.57;;;3.10;;
71626;SDS011;59475;52.464;13.590;2023-07-13T00:31:33;5.30;;;3.53;;
71626;SDS011;59475;52.464;13.590;2023-07-13T00:33:59;4.47;;;3.53;;
71626;SDS011;59475;52.464;13.590;2023-07-13T00:36:25;4.47;;;3.35;;
71626;SDS011;59475;52.464;13.590;2023-07-13T00:38:51;3.28;;;2.97;;
71626;SDS011;59475;52.464;13.590;2023-07-13T00:41:16;4.73;;;3.13;;
71626;SDS011;59475;52.464;13.590;2023-07-13T00:43:42;4.10;;;3.63;;
71626;SDS011;59475;52.464;13.590;2023-07-13T00:46:27;4.47;;;3.23;;
71626;SDS011;59475;52.464;13.590;2023-07-13T00:48:57;4.37;;;3.47;;
71626;SDS011;59475;52.464;13.590;2023-07-13T00:54:50;5.68;;;3.20;;
71626;SDS011;59475;52.464;13.590;2023-07-13T00:57:16;5.67;;;3.40;;
71626;SDS011;59475;52.464;13.590;2023-07-13T00:59:46;4.95;;;3.10;;
71626;SDS011;59475;52.464;13.590;2023-07-13T01:02:14;4.25;;;3.38;;
71626;SDS011;59475;52.464;13.590;2023-07-13T01:04:41;4.50;;;3.03;;
71626;SDS011;59475;52.464;13.590;2023-07-13T01:07:09;3.30;;;2.83;;
71626;SDS011;59475;52.464;13.590;2023-07-13T01:09:35;7.17;;;3.30;;
71626;SDS011;59475;52.464;13.590;2023-07-13T01:12:00;7.45;;;3.40;;
71626;SDS011;59475;52.464;13.590;2023-07-13T01:14:26;4.67;;;3.00;;
71626;SDS011;59475;52.464;13.590;2023-07-13T01:16:51;4.17;;;2.83;;
71626;SDS011;59475;52.464;13.590;2023-07-13T01:22:01;6.50;;;3.50;;
71626;SDS011;59475;52.464;13.590;2023-07-13T01:24:33;4.50;;;3.10;;
71626;SDS011;59475;52.464;13.590;2023-07-13T01:27:03;5.28;;;2.80;;
71626;SDS011;59475;52.464;13.590;2023-07-13T01:29:31;4.07;;;3.40;;
71626;SDS011;59475;52.464;13.590;2023-07-13T01:31:57;8.15;;;3.33;;
71626;SDS011;59475;52.464;13.590;2023-07-13T01:37:43;3.85;;;2.97;;
71626;SDS011;59475;52.464;13.590;2023-07-13T01:40:10;4.90;;;3.35;;
71626;SDS011;59475;52.464;13.590;2023-07-13T01:42:36;5.17;;;3.10;;
71626;SDS011;59475;52.464;13.590;2023-07-13T01:45:02;5.10;;;3.22;;
71626;SDS011;59475;52.464;13.590;2023-07-13T01:47:28;3.75;;;2.95;;
71626;SDS011;59475;52.464;13.590;2023-07-13T01:49:56;3.53;;;3.22;;
71626;SDS011;59475;52.464;13.590;2023-07-13T01:52:21;4.53;;;3.13;;
71626;SDS011;59475;52.464;13.590;2023-07-13T01:54:47;5.00;;;3.30;;
71626;SDS011;59475;52.464;13.590;2023-07-13T01:57:12;4.67;;;3.33;;
71626;SDS011;59475;52.464;13.590;2023-07-13T01:59:37;5.13;;;3.10;;
71626;SDS011;59475;52.464;13.590;2023-07-13T02:02:03;5.10;;;3.53;;
71626;SDS011;59475;52.464;13.590;2023-07-13T02:04:28;6.70;;;3.67;;
71626;SDS011;59475;52.464;13.590;2023-07-13T02:06:54;7.40;;;3.73;;
71626;SDS011;59475;52.464;13.590;2023-07-13T02:09:20;4.93;;;3.40;;
71626;SDS011;59475;52.464;13.590;2023-07-13T02:15:07;4.35;;;3.13;;
71626;SDS011;59475;52.464;13.590;2023-07-13T02:17:34;4.30;;;3.25;;
71626;SDS011;59475;52.464;13.590;2023-07-13T02:20:00;5.00;;;3.30;;
71626;SDS011;59475;52.464;13.590;2023-07-13T02:22:26;5.30;;;3.30;;
71626;SDS011;59475;52.464;13.590;2023-07-13T02:24:51;7.45;;;3.30;;
71626;SDS011;59475;52.464;13.590;2023-07-13T02:27:17;3.80;;;3.40;;
71626;SDS011;59475;52.464;13.590;2023-07-13T02:29:43;6.68;;;3.67;;
71626;SDS011;59475;52.464;13.590;2023-07-13T02:32:08;5.00;;;3.40;;
71626;SDS011;59475;52.464;13.590;2023-07-13T02:34:34;5.50;;;3.67;;
71626;SDS011;59475;52.464;13.590;2023-07-13T02:36:59;4.30;;;3.90;;
71626;SDS011;59475;52.464;13.590;2023-07-13T02:39:24;5.77;;;3.50;;
71626;SDS011;59475;52.464;13.590;2023-07-13T02:41:50;5.40;;;3.27;;
71626;SDS011;59475;52.464;13.590;2023-07-13T02:44:15;5.33;;;3.80;;
71626;SDS011;59475;52.464;13.590;2023-07-13T02:46:41;5.23;;;3.80;;
71626;SDS011;59475;52.464;13.590;2023-07-13T02:49:06;3.88;;;3.13;;
71626;SDS011;59475;52.464;13.590;2023-07-13T02:51:31;5.33;;;3.67;;
71626;SDS011;59475;52.464;13.590;2023-07-13T02:53:59;8.02;;;3.78;;
71626;SDS011;59475;52.464;13.590;2023-07-13T02:56:26;5.17;;;3.30;;
71626;SDS011;59475;52.464;13.590;2023-07-13T02:58:53;4.55;;;3.85;;
71626;SDS011;59475;52.464;13.590;2023-07-13T03:01:20;6.40;;;3.55;;
71626;SDS011;59475;52.464;13.590;2023-07-13T03:07:08;4.72;;;3.90;;
71626;SDS011;59475;52.464;13.590;2023-07-13T03:09:34;5.57;;;3.50;;
71626;SDS011;59475;52.464;13.590;2023-07-13T03:12:00;4.90;;;3.70;;
71626;SDS011;59475;52.464;13.590;2023-07-13T03:14:25;4.20;;;3.67;;
71626;SDS011;59475;52.464;13.590;2023-07-13T03:16:51;4.18;;;3.50;;
71626;SDS011;59475;52.464;13.590;2023-07-13T03:19:17;5.00;;;3.70;;
71626;SDS011;59475;52.464;13.590;2023-07-13T03:21:43;5.60;;;3.75;;
71626;SDS011;59475;52.464;13.590;2023-07-13T03:24:08;3.63;;;3.27;;
71626;SDS011;59475;52.464;13.590;2023-07-13T03:26:33;4.47;;;4.03;;
71626;SDS011;59475;52.464;13.590;2023-07-13T03:28:59;6.63;;;3.80;;
71626;SDS011;59475;52.464;13.590;2023-07-13T03:31:25;3.97;;;3.63;;
71626;SDS011;59475;52.464;13.590;2023-07-13T03:33:53;5.10;;;3.72;;
71626;SDS011;59475;52.464;13.590;2023-07-13T03:36:21;6.20;;;4.18;;
71626;SDS011;59475;52.464;13.590;2023-07-13T03:38:51;4.17;;;3.77;;
71626;SDS011;59475;52.464;13.590;2023-07-13T03:41:18;6.88;;;4.10;;
71626;SDS011;59475;52.464;13.590;2023-07-13T03:43:44;4.55;;;3.75;;
71626;SDS011;59475;52.464;13.590;2023-07-13T03:46:09;5.70;;;3.90;;
71626;SDS011;59475;52.464;13.590;2023-07-13T03:48:35;5.80;;;3.83;;
71626;SDS011;59475;52.464;13.590;2023-07-13T03:51:00;5.70;;;3.67;;
71626;SDS011;59475;52.464;13.590;2023-07-13T03:53:26;4.63;;;3.70;;
71626;SDS011;59475;52.464;13.590;2023-07-13T03:55:52;5.35;;;3.85;;
71626;SDS011;59475;52.464;13.590;2023-07-13T03:58:50;6.30;;;4.20;;
71626;SDS011;59475;52.464;13.590;2023-07-13T04:01:10;5.13;;;3.65;;
71626;SDS011;59475;52.464;13.590;2023-07-13T04:03:37;4.20;;;3.80;;
71626;SDS011;59475;52.464;13.590;2023-07-13T04:06:03;5.80;;;3.87;;
71626;SDS011;59475;52.464;13.590;2023-07-13T04:08:33;6.93;;;4.07;;
71626;SDS011;59475;52.464;13.590;2023-07-13T04:11:00;5.90;;;4.35;;
71626;SDS011;59475;52.464;13.590;2023-07-13T04:13:27;5.10;;;3.60;;
71626;SDS011;59475;52.464;13.590;2023-07-13T04:15:53;7.10;;;4.50;;
71626;SDS011;59475;52.464;13.590;2023-07-13T04:18:19;7.37;;;4.20;;
71626;SDS011;59475;52.464;13.590;2023-07-13T04:20:46;5.68;;;4.20;;
71626;SDS011;59475;52.464;13.590;2023-07-13T04:23:12;6.20;;;3.88;;
71626;SDS011;59475;52.464;13.590;2023-07-13T04:25:37;9.93;;;4.50;;
71626;SDS011;59475;52.464;13.590;2023-07-13T04:28:03;9.53;;;4.17;;
71626;SDS011;59475;52.464;13.590;2023-07-13T04:30:29;7.25;;;4.50;;
71626;SDS011;59475;52.464;13.590;2023-07-13T04:32:55;7.00;;;4.30;;
71626;SDS011;59475;52.464;13.590;2023-07-13T04:35:20;7.63;;;3.90;;
71626;SDS011;59475;52.464;13.590;2023-07-13T04:37:47;8.38;;;4.18;;
71626;SDS011;59475;52.464;13.590;2023-07-13T04:40:15;8.50;;;4.43;;
71626;SDS011;59475;52.464;13.590;2023-07-13T04:42:41;6.28;;;3.97;;
71626;SDS011;59475;52.464;13.590;2023-07-13T04:45:07;8.10;;;4.10;;
71626;SDS011;59475;52.464;13.590;2023-07-13T04:47:33;7.60;;;4.37;;
71626;SDS011;59475;52.464;13.590;2023-07-13T04:49:58;6.37;;;3.77;;
71626;SDS011;59475;52.464;13.590;2023-07-13T04:52:24;5.70;;;4.13;;
71626;SDS011;59475;52.464;13.590;2023-07-13T04:58:11;10.05;;;3.78;;
71626;SDS011;59475;52.464;13.590;2023-07-13T05:00:36;5.80;;;3.43;;
71626;SDS011;59475;52.464;13.590;2023-07-13T05:03:02;7.87;;;3.80;;
71626;SDS011;59475;52.464;13.590;2023-07-13T05:05:28;7.17;;;3.53;;
71626;SDS011;59475;52.464;13.590;2023-07-13T05:07:53;7.57;;;3.70;;
71626;SDS011;59475;52.464;13.590;2023-07-13T05:10:19;5.23;;;3.33;;
71626;SDS011;59475;52.464;13.590;2023-07-13T05:12:45;6.47;;;3.00;;
71626;SDS011;59475;52.464;13.590;2023-07-13T05:15:11;6.20;;;2.83;;
71626;SDS011;59475;52.464;13.590;2023-07-13T05:17:37;4.57;;;2.42;;
71626;SDS011;59475;52.464;13.590;2023-07-13T05:20:04;3.38;;;2.55;;
71626;SDS011;59475;52.464;13.590;2023-07-13T05:22:30;4.15;;;2.53;;
71626;SDS011;59475;52.464;13.590;2023-07-13T05:24:56;3.97;;;2.70;;
71626;SDS011;59475;52.464;13.590;2023-07-13T05:27:21;4.03;;;2.37;;
71626;SDS011;59475;52.464;13.590;2023-07-13T05:29:47;4.82;;;2.60;;
71626;SDS011;59475;52.464;13.590;2023-07-13T05:32:12;5.87;;;2.50;;
71626;SDS011;59475;52.464;13.590;2023-07-13T05:34:37;3.50;;;2.10;;
71626;SDS011;59475;52.464;13.590;2023-07-13T05:37:03;5.07;;;2.40;;
71626;SDS011;59475;52.464;13.590;2023-07-13T05:39:28;3.35;;;2.30;;
71626;SDS011;59475;52.464;13.590;2023-07-13T05:41:54;5.13;;;1.90;;
71626;SDS011;59475;52.464;13.590;2023-07-13T05:44:19;6.43;;;2.53;;
71626;SDS011;59475;52.464;13.590;2023-07-13T05:46:45;3.17;;;2.40;;
71626;SDS011;59475;52.464;13.590;2023-07-13T05:49:10;4.00;;;2.40;;
71626;SDS011;59475;52.464;13.590;2023-07-13T05:51:36;5.83;;;2.50;;
71626;SDS011;59475;52.464;13.590;2023-07-13T05:54:01;3.80;;;2.03;;
71626;SDS011;59475;52.464;13.590;2023-07-13T05:56:26;8.13;;;2.63;;
71626;SDS011;59475;52.464;13.590;2023-07-13T06:02:13;4.07;;;1.93;;
71626;SDS011;59475;52.464;13.590;2023-07-13T06:04:39;3.78;;;2.15;;
71626;SDS011;59475;52.464;13.590;2023-07-13T06:07:04;4.43;;;2.10;;
71626;SDS011;59475;52.464;13.590;2023-07-13T06:09:29;4.60;;;2.23;;
71626;SDS011;59475;52.464;13.590;2023-07-13T06:11:55;4.63;;;2.00;;
71626;SDS011;59475;52.464;13.590;2023-07-13T06:14:20;2.93;;;1.90;;
71626;SDS011;59475;52.464;13.590;2023-07-13T06:16:45;3.53;;;1.80;;
71626;SDS011;59475;52.464;13.590;2023-07-13T06:19:11;6.47;;;1.90;;
71626;SDS011;59475;52.464;13.590;2023-07-13T06:21:36;4.13;;;2.33;;
71626;SDS011;59475;52.464;13.590;2023-07-13T06:24:02;3.43;;;2.00;;
71626;SDS011;59475;52.464;13.590;2023-07-13T06:26:27;5.03;;;2.10;;
71626;SDS011;59475;52.464;13.590;2023-07-13T06:28:53;4.83;;;1.83;;
71626;SDS011;59475;52.464;13.590;2023-07-13T06:31:18;4.87;;;2.03;;
71626;SDS011;59475;52.464;13.590;2023-07-13T06:33:44;4.20;;;1.87;;
71626;SDS011;59475;52.464;13.590;2023-07-13T06:36:09;3.53;;;1.85;;
71626;SDS011;59475;52.464;13.590;2023-07-13T06:38:35;3.77;;;2.00;;
71626;SDS011;59475;52.464;13.590;2023-07-13T06:41:00;3.92;;;1.90;;
71626;SDS011;59475;52.464;13.590;2023-07-13T06:43:26;5.57;;;2.27;;
71626;SDS011;59475;52.464;13.590;2023-07-13T06:45:53;3.92;;;1.90;;
71626;SDS011;59475;52.464;13.590;2023-07-13T06:48:20;6.27;;;1.83;;
71626;SDS011;59475;52.464;13.590;2023-07-13T06:50:47;5.85;;;2.00;;
71626;SDS011;59475;52.464;13.590;2023-07-13T06:53:14;3.95;;;1.77;;
71626;SDS011;59475;52.464;13.590;2023-07-13T06:55:40;4.60;;;2.10;;
71626;SDS011;59475;52.464;13.590;2023-07-13T06:58:05;4.13;;;2.13;;
71626;SDS011;59475;52.464;13.590;2023-07-13T07:00:31;3.30;;;2.00;;
71626;SDS011;59475;52.464;13.590;2023-07-13T07:02:57;4.03;;;1.87;;
71626;SDS011;59475;52.464;13.590;2023-07-13T07:05:22;4.23;;;2.33;;
71626;SDS011;59475;52.464;13.590;2023-07-13T07:07:49;4.37;;;1.90;;
71626;SDS011;59475;52.464;13.590;2023-07-13T07:10:15;2.83;;;2.03;;
71626;SDS011;59475;52.464;13.590;2023-07-13T07:12:40;5.67;;;1.80;;
71626;SDS011;59475;52.464;13.590;2023-07-13T07:15:06;5.33;;;1.70;;
71626;SDS011;59475;52.464;13.590;2023-07-13T07:17:31;3.83;;;1.73;;
71626;SDS011;59475;52.464;13.590;2023-07-13T07:19:57;5.30;;;1.87;;
71626;SDS011;59475;52.464;13.590;2023-07-13T07:22:22;4.43;;;1.73;;
71626;SDS011;59475;52.464;13.590;2023-07-13T07:24:47;4.80;;;1.63;;
71626;SDS011;59475;52.464;13.590;2023-07-13T07:27:13;2.90;;;1.58;;
71626;SDS011;59475;52.464;13.590;2023-07-13T07:33:00;4.10;;;1.60;;
71626;SDS011;59475;52.464;13.590;2023-07-13T07:35:26;2.70;;;1.37;;
71626;SDS011;59475;52.464;13.590;2023-07-13T07:37:51;2.92;;;1.60;;
71626;SDS011;59475;52.464;13.590;2023-07-13T07:40:17;5.10;;;1.70;;
71626;SDS011;59475;52.464;13.590;2023-07-13T07:42:43;3.53;;;1.88;;
71626;SDS011;59475;52.464;13.590;2023-07-13T07:45:08;5.27;;;1.83;;
71626;SDS011;59475;52.464;13.590;2023-07-13T07:50:58;4.55;;;1.77;;
71626;SDS011;59475;52.464;13.590;2023-07-13T07:53:23;2.80;;;1.30;;
71626;SDS011;59475;52.464;13.590;2023-07-13T07:55:48;2.37;;;1.50;;
71626;SDS011;59475;52.464;13.590;2023-07-13T07:58:14;2.67;;;1.60;;
71626;SDS011;59475;52.464;13.590;2023-07-13T08:00:40;5.90;;;1.33;;
71626;SDS011;59475;52.464;13.590;2023-07-13T08:03:05;3.67;;;1.40;;
71626;SDS011;59475;52.464;13.590;2023-07-13T08:05:31;3.13;;;1.30;;
71626;SDS011;59475;52.464;13.590;2023-07-13T08:07:56;3.17;;;1.37;;
71626;SDS011;59475;52.464;13.590;2023-07-13T08:10:22;3.00;;;1.30;;
71626;SDS011;59475;52.464;13.590;2023-07-13T08:12:47;5.93;;;1.27;;
71626;SDS011;59475;52.464;13.590;2023-07-13T08:15:13;3.25;;;1.25;;
71626;SDS011;59475;52.464;13.590;2023-07-13T08:17:40;2.47;;;1.10;;
71626;SDS011;59475;52.464;13.590;2023-07-13T08:20:06;2.47;;;1.20;;
71626;SDS011;59475;52.464;13.590;2023-07-13T08:25:53;3.40;;;0.90;;
71626;SDS011;59475;52.464;13.590;2023-07-13T08:31:41;3.33;;;1.30;;
71626;SDS011;59475;52.464;13.590;2023-07-13T08:34:06;3.53;;;1.30;;
71626;SDS011;59475;52.464;13.590;2023-07-13T08:39:53;3.67;;;1.30;;
71626;SDS011;59475;52.464;13.590;2023-07-13T08:48:13;3.40;;;1.17;;
71626;SDS011;59475;52.464;13.590;2023-07-13T08:50:42;5.65;;;1.33;;
71626;SDS011;59475;52.464;13.590;2023-07-13T08:53:39;3.42;;;1.33;;
71626;SDS011;59475;52.464;13.590;2023-07-13T08:59:31;4.93;;;1.27;;
71626;SDS011;59475;52.464;13.590;2023-07-13T09:11:14;3.90;;;1.30;;
71626;SDS011;59475;52.464;13.590;2023-07-13T09:22:59;2.67;;;1.05;;
71626;SDS011;59475;52.464;13.590;2023-07-13T09:25:31;3.30;;;1.23;;
71626;SDS011;59475;52.464;13.590;2023-07-13T09:27:58;3.70;;;1.30;;
71626;SDS011;59475;52.464;13.590;2023-07-13T09:30:36;2.97;;;1.15;;
71626;SDS011;59475;52.464;13.590;2023-07-13T09:36:32;2.63;;;1.05;;
71626;SDS011;59475;52.464;13.590;2023-07-13T09:39:21;2.97;;;1.30;;
71626;SDS011;59475;52.464;13.590;2023-07-13T09:44:37;4.13;;;1.20;;
71626;SDS011;59475;52.464;13.590;2023-07-13T09:47:15;2.97;;;1.25;;
71626;SDS011;59475;52.464;13.590;2023-07-13T09:49:47;4.90;;;1.40;;
71626;SDS011;59475;52.464;13.590;2023-07-13T09:52:14;2.93;;;1.30;;
71626;SDS011;59475;52.464;13.590;2023-07-13T09:54:44;4.45;;;1.60;;
71626;SDS011;59475;52.464;13.590;2023-07-13T09:57:14;3.53;;;1.25;;
71626;SDS011;59475;52.464;13.590;2023-07-13T10:03:04;2.97;;;1.63;;
71626;SDS011;59475;52.464;13.590;2023-07-13T10:08:59;7.75;;;1.90;;
71626;SDS011;59475;52.464;13.590;2023-07-13T10:11:27;4.90;;;2.10;;
71626;SDS011;59475;52.464;13.590;2023-07-13T10:17:24;4.57;;;2.17;;
71626;SDS011;59475;52.464;13.590;2023-07-13T10:19:55;3.33;;;2.25;;
71626;SDS011;59475;52.464;13.590;2023-07-13T10:22:27;3.30;;;2.20;;
71626;SDS011;59475;52.464;13.590;2023-07-13T10:30:52;3.40;;;2.45;;
71626;SDS011;59475;52.464;13.590;2023-07-13T10:33:20;6.20;;;2.30;;
71626;SDS011;59475;52.464;13.590;2023-07-13T10:35:46;4.27;;;2.60;;
71626;SDS011;59475;52.464;13.590;2023-07-13T10:38:18;4.60;;;2.42;;
71626;SDS011;59475;52.464;13.590;2023-07-13T10:41:03;7.72;;;2.42;;
71626;SDS011;59475;52.464;13.590;2023-07-13T10:43:37;4.83;;;2.20;;
71626;SDS011;59475;52.464;13.590;2023-07-13T10:49:30;4.55;;;2.55;;
71626;SDS011;59475;52.464;13.590;2023-07-13T10:51:57;6.10;;;2.17;;
71626;SDS011;59475;52.464;13.590;2023-07-13T10:54:27;3.50;;;2.40;;
71626;SDS011;59475;52.464;13.590;2023-07-13T10:57:06;7.70;;;2.42;;
71626;SDS011;59475;52.464;13.590;2023-07-13T11:02:58;4.13;;;2.38;;
71626;SDS011;59475;52.464;13.590;2023-07-13T11:05:31;5.63;;;2.10;;
71626;SDS011;59475;52.464;13.590;2023-07-13T11:11:00;3.25;;;2.20;;
71626;SDS011;59475;52.464;13.590;2023-07-13T11:16:34;3.90;;;1.77;;
71626;SDS011;59475;52.464;13.590;2023-07-13T11:22:22;3.25;;;2.10;;
71626;SDS011;59475;52.464;13.590;2023-07-13T11:24:51;4.20;;;1.98;;
71626;SDS011;59475;52.464;13.590;2023-07-13T11:27:35;4.75;;;2.38;;
71626;SDS011;59475;52.464;13.590;2023-07-13T11:30:35;3.35;;;1.95;;
71626;SDS011;59475;52.464;13.590;2023-07-13T11:36:13;4.82;;;1.80;;
71626;SDS011;59475;52.464;13.590;2023-07-13T11:38:40;5.28;;;2.00;;
71626;SDS011;59475;52.464;13.590;2023-07-13T11:41:15;4.32;;;1.95;;
71626;SDS011;59475;52.464;13.590;2023-07-13T11:43:44;4.75;;;1.95;;
71626;SDS011;59475;52.464;13.590;2023-07-13T11:49:31;5.10;;;2.10;;
71626;SDS011;59475;52.464;13.590;2023-07-13T11:51:57;7.63;;;1.80;;
71626;SDS011;59475;52.464;13.590;2023-07-13T11:54:25;8.65;;;1.80;;
71626;SDS011;59475;52.464;13.590;2023-07-13T12:00:19;3.72;;;1.60;;
71626;SDS011;59475;52.464;13.590;2023-07-13T12:02:48;4.10;;;1.60;;
71626;SDS011;59475;52.464;13.590;2023-07-13T12:05:17;5.63;;;2.00;;
71626;SDS011;59475;52.464;13.590;2023-07-13T12:11:13;3.65;;;1.88;;
71626;SDS011;59475;52.464;13.590;2023-07-13T12:13:41;3.88;;;1.63;;
71626;SDS011;59475;52.464;13.590;2023-07-13T12:18:58;3.77;;;1.70;;
71626;SDS011;59475;52.464;13.590;2023-07-13T12:21:37;5.47;;;2.00;;
71626;SDS011;59475;52.464;13.590;2023-07-13T12:24:03;4.10;;;1.88;;
71626;SDS011;59475;52.464;13.590;2023-07-13T12:26:30;3.10;;;1.80;;
71626;SDS011;59475;52.464;13.590;2023-07-13T12:28:58;6.95;;;1.98;;
71626;SDS011;59475;52.464;13.590;2023-07-13T12:31:29;3.90;;;1.33;;
71626;SDS011;59475;52.464;13.590;2023-07-13T12:36:40;4.90;;;1.63;;
71626;SDS011;59475;52.464;13.590;2023-07-13T12:39:46;4.90;;;1.88;;
71626;SDS011;59475;52.464;13.590;2023-07-13T12:42:20;2.88;;;1.65;;
71626;SDS011;59475;52.464;13.590;2023-07-13T12:44:57;4.10;;;2.00;;
71626;SDS011;59475;52.464;13.590;2023-07-13T12:47:25;3.90;;;1.80;;
71626;SDS011;59475;52.464;13.590;2023-07-13T12:49:56;4.57;;;1.90;;
71626;SDS011;59475;52.464;13.590;2023-07-13T12:52:27;4.80;;;1.80;;
71626;SDS011;59475;52.464;13.590;2023-07-13T12:55:19;4.60;;;2.17;;
71626;SDS011;59475;52.464;13.590;2023-07-13T13:01:07;3.45;;;1.70;;
71626;SDS011;59475;52.464;13.590;2023-07-13T13:03:37;3.25;;;1.60;;
71626;SDS011;59475;52.464;13.590;2023-07-13T13:08:45;4.32;;;1.58;;
71626;SDS011;59475;52.464;13.590;2023-07-13T13:11:13;3.13;;;1.83;;
71626;SDS011;59475;52.464;13.590;2023-07-13T13:13:41;3.88;;;2.10;;
71626;SDS011;59475;52.464;13.590;2023-07-13T13:16:12;3.88;;;1.85;;
71626;SDS011;59475;52.464;13.590;2023-07-13T13:18:42;5.15;;;1.70;;
71626;SDS011;59475;52.464;13.590;2023-07-13T13:21:08;3.83;;;1.80;;
71626;SDS011;59475;52.464;13.590;2023-07-13T13:23:34;2.97;;;1.70;;
71626;SDS011;59475;52.464;13.590;2023-07-13T13:26:00;6.83;;;1.70;;
71626;SDS011;59475;52.464;13.590;2023-07-13T13:28:26;4.55;;;1.58;;
71626;SDS011;59475;52.464;13.590;2023-07-13T13:30:51;3.97;;;1.77;;
71626;SDS011;59475;52.464;13.590;2023-07-13T13:33:17;2.80;;;1.60;;
71626;SDS011;59475;52.464;13.590;2023-07-13T13:39:20;3.38;;;1.60;;
71626;SDS011;59475;52.464;13.590;2023-07-13T13:41:54;2.17;;;1.02;;
71626;SDS011;59475;52.464;13.590;2023-07-13T13:44:20;4.13;;;1.73;;
71626;SDS011;59475;52.464;13.590;2023-07-13T13:46:50;6.35;;;1.80;;
71626;SDS011;59475;52.464;13.590;2023-07-13T13:49:19;3.80;;;1.48;;
71626;SDS011;59475;52.464;13.590;2023-07-13T13:51:46;3.55;;;1.63;;
71626;SDS011;59475;52.464;13.590;2023-07-13T13:54:13;2.77;;;1.43;;
71626;SDS011;59475;52.464;13.590;2023-07-13T13:56:45;4.82;;;1.80;;
71626;SDS011;59475;52.464;13.590;2023-07-13T13:59:12;3.08;;;1.40;;
71626;SDS011;59475;52.464;13.590;2023-07-13T14:01:39;3.58;;;1.50;;
71626;SDS011;59475;52.464;13.590;2023-07-13T14:04:08;4.20;;;1.80;;
71626;SDS011;59475;52.464;13.590;2023-07-13T14:06:46;3.70;;;1.37;;
71626;SDS011;59475;52.464;13.590;2023-07-13T14:09:13;8.00;;;1.55;;
71626;SDS011;59475;52.464;13.590;2023-07-13T14:11:41;3.15;;;1.40;;
71626;SDS011;59475;52.464;13.590;2023-07-13T14:14:08;4.18;;;1.58;;
71626;SDS011;59475;52.464;13.590;2023-07-13T14:16:40;4.57;;;1.67;;
71626;SDS011;59475;52.464;13.590;2023-07-13T14:19:07;4.40;;;1.40;;
71626;SDS011;59475;52.464;13.590;2023-07-13T14:24:58;3.90;;;1.33;;
71626;SDS011;59475;52.464;13.590;2023-07-13T14:27:24;2.25;;;1.30;;
71626;SDS011;59475;52.464;13.590;2023-07-13T14:29:50;1.93;;;1.47;;
71626;SDS011;59475;52.464;13.590;2023-07-13T14:32:15;4.82;;;1.40;;
71626;SDS011;59475;52.464;13.590;2023-07-13T14:34:41;4.33;;;1.13;;
71626;SDS011;59475;52.464;13.590;2023-07-13T14:37:10;3.43;;;1.67;;
71626;SDS011;59475;52.464;13.590;2023-07-13T14:39:38;2.95;;;1.38;;
71626;SDS011;59475;52.464;13.590;2023-07-13T14:42:04;4.87;;;1.23;;
71626;SDS011;59475;52.464;13.590;2023-07-13T14:44:30;2.40;;;1.20;;
71626;SDS011;59475;52.464;13.590;2023-07-13T14:46:56;2.50;;;1.10;;
71626;SDS011;59475;52.464;13.590;2023-07-13T14:55:19;2.85;;;1.15;;
71626;SDS011;59475;52.464;13.590;2023-07-13T14:57:46;3.78;;;1.08;;
71626;SDS011;59475;52.464;13.590;2023-07-13T15:00:12;4.60;;;1.33;;
71626;SDS011;59475;52.464;13.590;2023-07-13T15:02:43;3.20;;;1.08;;
71626;SDS011;59475;52.464;13.590;2023-07-13T15:05:19;3.03;;;1.02;;
71626;SDS011;59475;52.464;13.590;2023-07-13T15:07:48;4.67;;;1.20;;
71626;SDS011;59475;52.464;13.590;2023-07-13T15:12:43;2.53;;;1.20;;
71626;SDS011;59475;52.464;13.590;2023-07-13T15:15:08;2.73;;;1.13;;
71626;SDS011;59475;52.464;13.590;2023-07-13T15:17:37;4.47;;;1.03;;
71626;SDS011;59475;52.464;13.590;2023-07-13T15:20:27;3.30;;;1.20;;
71626;SDS011;59475;52.464;13.590;2023-07-13T15:22:55;5.43;;;1.13;;
71626;SDS011;59475;52.464;13.590;2023-07-13T15:25:25;2.75;;;1.10;;
71626;SDS011;59475;52.464;13.590;2023-07-13T15:27:53;2.38;;;0.98;;
71626;SDS011;59475;52.464;13.590;2023-07-13T15:30:20;3.13;;;1.00;;
71626;SDS011;59475;52.464;13.590;2023-07-13T15:32:46;1.73;;;1.17;;
71626;SDS011;59475;52.464;13.590;2023-07-13T15:35:13;3.88;;;1.30;;
71626;SDS011;59475;52.464;13.590;2023-07-13T15:37:40;4.60;;;1.10;;
71626;SDS011;59475;52.464;13.590;2023-07-13T15:40:05;1.10;;;0.80;;
71626;SDS011;59475;52.464;13.590;2023-07-13T15:42:32;2.22;;;0.93;;
71626;SDS011;59475;52.464;13.590;2023-07-13T15:44:57;1.80;;;0.90;;
71626;SDS011;59475;52.464;13.590;2023-07-13T15:47:23;2.00;;;0.90;;
71626;SDS011;59475;52.464;13.590;2023-07-13T15:49:48;1.20;;;0.90;;
71626;SDS011;59475;52.464;13.590;2023-07-13T15:52:17;1.67;;;0.77;;
71626;SDS011;59475;52.464;13.590;2023-07-13T15:54:44;3.77;;;1.10;;
71626;SDS011;59475;52.464;13.590;2023-07-13T15:57:10;3.92;;;1.10;;
71626;SDS011;59475;52.464;13.590;2023-07-13T16:02:58;3.42;;;1.10;;
71626;SDS011;59475;52.464;13.590;2023-07-13T16:05:24;2.80;;;1.10;;
71626;SDS011;59475;52.464;13.590;2023-07-13T16:07:50;3.17;;;1.03;;
71626;SDS011;59475;52.464;13.590;2023-07-13T16:10:19;3.30;;;1.17;;
71626;SDS011;59475;52.464;13.590;2023-07-13T16:12:47;3.63;;;1.05;;
71626;SDS011;59475;52.464;13.590;2023-07-13T16:15:14;3.10;;;0.95;;
71626;SDS011;59475;52.464;13.590;2023-07-13T16:17:42;1.97;;;1.30;;
71626;SDS011;59475;52.464;13.590;2023-07-13T16:20:08;4.13;;;1.00;;
71626;SDS011;59475;52.464;13.590;2023-07-13T16:22:38;3.80;;;1.20;;
71626;SDS011;59475;52.464;13.590;2023-07-13T16:25:11;3.10;;;1.30;;
71626;SDS011;59475;52.464;13.590;2023-07-13T16:27:38;5.72;;;1.17;;
71626;SDS011;59475;52.464;13.590;2023-07-13T16:30:37;2.80;;;1.13;;
71626;SDS011;59475;52.464;13.590;2023-07-13T16:32:58;2.45;;;1.08;;
71626;SDS011;59475;52.464;13.590;2023-07-13T16:35:29;3.50;;;1.47;;
71626;SDS011;59475;52.464;13.590;2023-07-13T16:37:59;3.83;;;1.00;;
71626;SDS011;59475;52.464;13.590;2023-07-13T16:40:26;4.05;;;1.35;;
71626;SDS011;59475;52.464;13.590;2023-07-13T16:42:59;3.47;;;1.20;;
71626;SDS011;59475;52.464;13.590;2023-07-13T16:45:27;4.93;;;0.93;;
71626;SDS011;59475;52.464;13.590;2023-07-13T16:47:55;2.67;;;1.00;;
71626;SDS011;59475;52.464;13.590;2023-07-13T16:50:23;5.35;;;1.30;;
71626;SDS011;59475;52.464;13.590;2023-07-13T16:52:50;2.92;;;1.33;;
71626;SDS011;59475;52.464;13.590;2023-07-13T16:55:18;1.95;;;1.20;;
71626;SDS011;59475;52.464;13.590;2023-07-13T16:57:52;2.97;;;1.20;;
71626;SDS011;59475;52.464;13.590;2023-07-13T17:00:21;3.20;;;1.20;;
71626;SDS011;59475;52.464;13.590;2023-07-13T17:02:52;3.00;;;1.20;;
71626;SDS011;59475;52.464;13.590;2023-07-13T17:05:26;1.70;;;1.10;;
71626;SDS011;59475;52.464;13.590;2023-07-13T17:07:53;2.25;;;1.13;;